Mormon Lake, AZ (86038)

2:25 PM MST on July 26, 2016 (GMT -0700)
MesoWest | | Change Station

Elev 7500 ft 34.94 °N, 111.52 °W | Updated 1 hour ago

Overcast
Overcast
60.0 °F
Feels Like 60.0 °F
N
0.0
Wind Variable Wind from North
Gusts 0.0 mph

Today
High -- | Low -- °F
--% Chance of Precip.
Yesterday
High -- | Low -- °F
Precip. -- in
Pressure 30.01 in
Visibility 10.0 miles
Clouds Mostly Cloudy 10000 ft
Dew Point Not available.
Humidity Not available.
Rainfall in
Snow Depth Not available.
5:31 AM 7:32 PM
Waning Gibbous, 51% visible
METAR KFLG 262057Z 20010KT 10SM TS BKN100 23/11 A3032 RMK AO2 SLP162 T02330111 56015
Pressure 30.01 in
Visibility 10.0 miles
Clouds Mostly Cloudy 10000 ft
Dew Point Not available.
Humidity Not available.
Rainfall in
Snow Depth Not available.
5:31 AM 7:32 PM
Waning Gibbous, 51% visible
METAR KFLG 262057Z 20010KT 10SM TS BKN100 23/11 A3032 RMK AO2 SLP162 T02330111 56015

10-Day Weather Forecast

Almanac

Astronomy

Jul. 26, 2016 Rise Set
Actual Time
Civil Twilight
Nautical Twilight
Astronomical Twilight
Moon
Length of Visible Light
Length of Day
Tomorrow will be .
, % of the Moon is Illuminated

Today's Extremes

State Highs State Lows

Community

WunderPhotos

Upload Photos

1,927,702 photos uploaded!

WunderBlog® & News

Nearby

Air Quality

  Air Quality AQ Index Pollutant
Not available.

Snow Depth

Station Depth Elevation

Earthquake Activity

City Distance Mag. Time & Date
Minimum magnitude displayed is 2.5.

Coastal Water Temperatures

Place Temperature

Stations

Nearby Weather Stations

Station Location Temp. Windchill Dew Point Humidity Wind Precip. Elev Updated Type
                   

Watches & Warnings

There are currently no watches in effect.